Time;durP1;ratioP1;P1;durP2;ratioP2;P2;SDS_P1;SDS_P2;PMS_P1;PMS_P2;Temp;Humidity;BMP_temperature;BMP_pressure;BME280_temperature;BME280_humidity;BME280_pressure;Samples;Min_cycle;Max_cycle;Signal;HPM_P1;HPM_P2
2021/11/23 00:00:45;;;;;;;;;2.00;0.00;;;;;4.57;63.78;102477.56;5062577;28;46289;-79
2021/11/23 00:03:18;;;;;;;;;0.00;0.00;;;;;4.62;63.35;102493.34;5061356;28;46040;-80
2021/11/23 00:05:48;;;;;;;;;1.00;1.00;;;;;4.52;64.06;102476.41;5062830;28;45315;-79
2021/11/23 00:08:15;;;;;;;;;0.00;0.00;;;;;4.61;64.24;102490.66;5044894;28;45545;-80
2021/11/23 00:10:42;;;;;;;;;0.00;0.00;;;;;4.69;63.64;102485.19;5062670;28;45585;-80
2021/11/23 00:13:08;;;;;;;;;1.75;1.00;;;;;4.73;63.59;102488.84;5061335;28;45180;-78
2021/11/23 00:15:36;;;;;;;;;1.00;1.00;;;;;4.50;63.17;102452.22;5062436;28;45381;-79
2021/11/23 00:18:04;;;;;;;;;1.50;0.25;;;;;4.62;64.11;102474.41;5062852;28;45513;-79
2021/11/23 00:20:29;;;;;;;;;1.00;1.00;;;;;4.54;63.42;102464.50;5062492;28;46158;-80
2021/11/23 00:22:54;;;;;;;;;0.25;0.25;;;;;4.67;63.18;102484.22;5062371;28;45225;-80
2021/11/23 00:25:20;;;;;;;;;0.75;0.00;;;;;4.57;63.42;102468.97;5062177;28;45240;-80
2021/11/23 00:27:46;;;;;;;;;3.00;0.00;;;;;4.57;63.42;102466.38;5062817;28;45664;-79
2021/11/23 00:30:11;;;;;;;;;2.00;1.00;;;;;4.55;63.30;102458.56;5062119;28;46001;-80
2021/11/23 00:32:36;;;;;;;;;2.25;2.25;;;;;4.68;63.76;102480.81;5046046;28;45340;-79
2021/11/23 00:35:02;;;;;;;;;4.50;1.75;;;;;4.59;63.20;102458.75;5063062;28;45298;-79
2021/11/23 00:37:28;;;;;;;;;2.25;2.00;;;;;4.46;63.74;102452.81;5061204;28;45389;-80
2021/11/23 00:39:53;;;;;;;;;1.00;1.00;;;;;4.46;63.77;102459.66;5062257;28;45303;-79
2021/11/23 00:42:18;;;;;;;;;0.00;0.00;;;;;4.54;63.33;102477.38;5061009;28;45344;-80
2021/11/23 00:44:44;;;;;;;;;1.50;1.00;;;;;4.38;63.64;102449.75;5062125;28;45268;-79
2021/11/23 00:47:09;;;;;;;;;2.75;2.00;;;;;4.52;63.67;102468.69;5078011;28;45551;-80
2021/11/23 00:49:35;;;;;;;;;4.00;3.25;;;;;4.64;63.39;102484.03;5077121;28;45409;-80
2021/11/23 00:52:00;;;;;;;;;2.75;1.00;;;;;4.56;63.35;102483.53;5062175;28;45320;-80
2021/11/23 00:54:25;;;;;;;;;1.50;1.50;;;;;4.58;63.29;102488.78;5062291;28;45368;-79
2021/11/23 00:56:51;;;;;;;;;2.25;1.50;;;;;4.36;63.71;102466.84;5062364;28;45269;-79
2021/11/23 00:59:16;;;;;;;;;0.50;0.50;;;;;4.43;63.63;102471.59;5044172;28;45876;-80
2021/11/23 01:01:41;;;;;;;;;1.50;1.50;;;;;4.53;63.22;102490.19;5062512;28;45337;-80
2021/11/23 01:04:07;;;;;;;;;5.00;1.00;;;;;4.39;63.83;102473.88;5062691;28;45865;-79
2021/11/23 01:06:32;;;;;;;;;0.50;0.50;;;;;4.22;63.75;102429.88;5062539;28;45235;-80
2021/11/23 01:08:58;;;;;;;;;4.25;1.25;;;;;4.44;63.77;102475.03;5063550;28;46176;-80
2021/11/23 01:11:23;;;;;;;;;1.00;0.00;;;;;4.35;64.32;102475.34;5065397;28;45283;-80
2021/11/23 01:13:49;;;;;;;;;3.25;1.00;;;;;4.36;63.73;102484.00;5064173;28;45414;-80
2021/11/23 01:16:16;;;;;;;;;0.00;0.00;;;;;4.49;63.51;102501.13;5062313;28;45428;-80
2021/11/23 01:18:42;;;;;;;;;0.00;0.00;;;;;4.31;64.38;102451.09;5061978;28;46089;-80
2021/11/23 01:21:09;;;;;;;;;0.25;0.25;;;;;4.40;63.79;102462.75;5061807;28;45382;-80
2021/11/23 01:23:36;;;;;;;;;3.50;1.00;;;;;4.27;63.80;102451.69;5061787;28;45339;-80
2021/11/23 01:26:03;;;;;;;;;1.00;1.00;;;;;4.36;64.16;102459.09;5062087;28;45321;-79
2021/11/23 01:28:29;;;;;;;;;1.00;0.00;;;;;4.34;63.94;102463.25;5061585;28;45380;-80
2021/11/23 01:30:55;;;;;;;;;0.25;0.25;;;;;4.28;63.33;102439.69;5042986;28;46159;-79
2021/11/23 01:33:20;;;;;;;;;0.00;0.00;;;;;4.52;63.65;102475.50;5051839;28;45455;-79
2021/11/23 01:35:45;;;;;;;;;1.00;1.00;;;;;4.54;63.32;102473.94;5062062;28;45613;-79
2021/11/23 01:38:13;;;;;;;;;0.75;0.75;;;;;4.52;63.93;102476.41;5065160;28;46102;-80
2021/11/23 01:40:39;;;;;;;;;2.00;0.75;;;;;4.25;63.10;102445.53;5065066;28;45352;-78
2021/11/23 01:43:07;;;;;;;;;0.50;0.50;;;;;4.22;63.43;102453.06;5065228;28;45346;-79
2021/11/23 01:45:34;;;;;;;;;1.00;1.00;;;;;4.36;63.51;102490.06;5093830;27;45590;-78
2021/11/23 01:48:00;;;;;;;;;0.00;0.00;;;;;4.30;63.90;102472.53;5080834;28;47093;-78
2021/11/23 01:50:25;;;;;;;;;1.00;0.75;;;;;4.28;63.99;102492.16;5066103;28;45222;-78
2021/11/23 01:52:51;;;;;;;;;1.00;1.00;;;;;4.31;63.09;102494.00;5083700;28;45276;-79
2021/11/23 01:55:16;;;;;;;;;0.75;0.75;;;;;4.29;63.97;102485.31;5085513;28;45220;-79
2021/11/23 01:57:42;;;;;;;;;2.00;0.00;;;;;4.28;64.20;102493.81;5100889;27;48147;-79
2021/11/23 02:00:11;;;;;;;;;2.75;0.00;;;;;4.20;64.36;102490.78;5085213;28;45371;-78
2021/11/23 02:02:37;;;;;;;;;0.25;0.25;;;;;4.25;64.13;102493.63;5055392;28;45265;-79
2021/11/23 02:05:03;;;;;;;;;0.00;0.00;;;;;4.26;63.46;102488.56;5060234;28;45535;-78
2021/11/23 02:07:28;;;;;;;;;0.00;0.00;;;;;4.33;64.31;102495.00;5044556;28;46401;-79
2021/11/23 02:09:54;;;;;;;;;1.00;1.00;;;;;4.25;64.44;102481.63;5044342;28;45165;-79
2021/11/23 02:12:21;;;;;;;;;0.00;0.00;;;;;4.40;63.56;102514.31;5056277;28;45365;-79
2021/11/23 02:14:47;;;;;;;;;0.00;0.00;;;;;4.42;63.28;102503.34;5065109;28;45166;-79
2021/11/23 02:17:12;;;;;;;;;0.75;0.75;;;;;4.34;63.68;102480.41;5045958;28;48340;-79
2021/11/23 02:19:37;;;;;;;;;0.00;0.00;;;;;4.41;64.01;102496.38;5063314;28;45393;-79
2021/11/23 02:22:03;;;;;;;;;0.25;0.25;;;;;4.16;63.75;102453.59;5055276;28;45331;-79
2021/11/23 02:24:29;;;;;;;;;1.00;1.00;;;;;4.32;63.10;102485.50;5060127;28;45254;-79
2021/11/23 02:26:54;;;;;;;;;0.75;0.00;;;;;4.39;62.89;102505.72;5044198;28;45329;-79
2021/11/23 02:29:20;;;;;;;;;1.00;1.00;;;;;4.36;63.84;102491.72;5044948;28;45406;-79
2021/11/23 02:31:46;;;;;;;;;1.00;1.00;;;;;4.14;63.18;102472.34;5050702;28;45305;-80
2021/11/23 02:34:11;;;;;;;;;0.50;0.50;;;;;4.23;63.81;102498.69;5084839;28;45407;-80
2021/11/23 02:36:38;;;;;;;;;2.00;1.00;;;;;4.15;63.42;102492.16;5083409;28;46963;-79
2021/11/23 02:39:05;;;;;;;;;0.75;0.75;;;;;4.17;63.69;102488.88;5072698;28;45241;-80
2021/11/23 02:41:31;;;;;;;;;2.00;1.00;;;;;4.14;63.53;102474.91;5044584;28;45230;-79
2021/11/23 02:43:57;;;;;;;;;1.75;1.75;;;;;3.96;63.15;102447.19;5042963;28;45218;-79
2021/11/23 02:46:22;;;;;;;;;0.25;0.25;;;;;4.12;63.26;102476.50;5059209;28;46246;-80
2021/11/23 02:48:48;;;;;;;;;0.00;0.00;;;;;4.22;63.17;102502.06;5046772;28;45281;-80
2021/11/23 02:51:15;;;;;;;;;0.00;0.00;;;;;4.17;63.72;102482.84;5064801;28;45244;-80
2021/11/23 02:53:46;;;;;;;;;1.00;1.00;;;;;3.91;63.80;102438.25;5064268;28;45276;-79
2021/11/23 02:56:13;;;;;;;;;1.00;1.00;;;;;4.13;63.14;102486.00;5046070;28;48430;-80
2021/11/23 02:58:40;;;;;;;;;1.00;1.00;;;;;4.09;63.69;102479.78;5044219;28;45379;-79
2021/11/23 03:01:09;;;;;;;;;0.00;0.00;;;;;4.02;64.29;102475.91;5043746;28;45354;-79
2021/11/23 03:03:34;;;;;;;;;0.00;0.00;;;;;4.13;63.50;102498.88;5059467;28;45514;-80
2021/11/23 03:06:01;;;;;;;;;0.00;0.00;;;;;3.79;63.63;102446.09;5043649;28;45319;-79
2021/11/23 03:08:26;;;;;;;;;0.75;0.00;;;;;3.94;63.10;102469.38;5058800;28;45332;-79
2021/11/23 03:10:52;;;;;;;;;0.50;0.50;;;;;3.99;63.42;102480.88;5078632;28;45473;-79
2021/11/23 03:13:17;;;;;;;;;0.75;0.75;;;;;3.85;63.94;102455.91;5063997;28;45234;-79
2021/11/23 03:15:43;;;;;;;;;0.00;0.00;;;;;3.77;63.76;102443.41;5058658;28;45961;-79
2021/11/23 03:18:12;;;;;;;;;0.50;0.50;;;;;4.14;63.67;102485.22;5058785;28;45331;-80
2021/11/23 03:20:38;;;;;;;;;0.00;0.00;;;;;4.00;63.79;102464.63;5027036;28;45405;-80
2021/11/23 03:23:06;;;;;;;;;0.75;0.00;;;;;4.07;63.17;102468.47;5023673;28;45268;-79
2021/11/23 03:25:31;;;;;;;;;0.75;0.00;;;;;4.15;63.85;102466.38;5038758;28;46063;-80
2021/11/23 03:27:57;;;;;;;;;2.00;0.25;;;;;4.16;63.94;102474.22;5023263;28;45228;-79
2021/11/23 03:30:28;;;;;;;;;0.75;0.75;;;;;3.83;63.22;102411.13;5038563;28;45383;-80
2021/11/23 03:32:55;;;;;;;;;0.00;0.00;;;;;4.14;63.11;102469.75;5056009;28;45460;-79
2021/11/23 03:35:22;;;;;;;;;0.00;0.00;;;;;4.11;63.87;102473.03;5063758;28;46442;-80
2021/11/23 03:37:47;;;;;;;;;0.00;0.00;;;;;4.01;63.29;102458.66;5079079;28;45364;-79
2021/11/23 03:40:14;;;;;;;;;1.00;1.00;;;;;4.03;63.54;102464.81;5039700;28;45477;-79
2021/11/23 03:42:40;;;;;;;;;0.00;0.00;;;;;4.07;63.22;102465.03;5049881;28;45667;-79
2021/11/23 03:45:06;;;;;;;;;0.50;0.50;;;;;4.00;63.23;102456.88;5032645;28;46316;-80
2021/11/23 03:47:34;;;;;;;;;0.50;0.50;;;;;3.76;63.36;102408.16;5048021;28;45737;-80
2021/11/23 03:50:00;;;;;;;;;0.00;0.00;;;;;3.88;63.88;102441.53;5042565;28;45283;-80
2021/11/23 03:52:26;;;;;;;;;0.00;0.00;;;;;3.97;63.22;102458.38;5052276;28;45335;-81
2021/11/23 03:54:52;;;;;;;;;0.00;0.00;;;;;3.95;62.99;102458.25;5043247;28;45313;-79
2021/11/23 03:57:18;;;;;;;;;2.00;2.00;;;;;3.63;63.19;102423.63;5046954;28;45481;-80
2021/11/23 03:59:47;;;;;;;;;1.50;0.00;;;;;3.75;63.44;102445.03;5043785;28;46667;-80
2021/11/23 04:02:15;;;;;;;;;0.25;0.25;;;;;3.55;62.88;102418.84;5042797;28;45198;-79
2021/11/23 04:04:41;;;;;;;;;0.50;0.50;;;;;3.78;63.06;102463.25;5041758;28;47084;-79
2021/11/23 04:07:06;;;;;;;;;0.00;0.00;;;;;3.77;62.95;102466.59;5057543;28;45387;-79
2021/11/23 04:09:31;;;;;;;;;1.50;0.00;;;;;3.70;62.72;102451.53;5053627;28;45417;-79
2021/11/23 04:11:57;;;;;;;;;0.00;0.00;;;;;3.61;63.42;102431.25;5023196;28;45304;-80
2021/11/23 04:14:22;;;;;;;;;1.00;1.00;;;;;3.59;63.09;102437.09;5022931;28;46310;-80
2021/11/23 04:16:47;;;;;;;;;1.25;0.25;;;;;3.71;62.96;102457.59;5035830;28;45352;-79
2021/11/23 04:19:14;;;;;;;;;0.00;0.00;;;;;3.48;63.52;102433.81;5044749;28;45547;-79
2021/11/23 04:21:39;;;;;;;;;0.50;0.50;;;;;3.53;63.45;102440.16;5062909;28;45273;-79
2021/11/23 04:24:05;;;;;;;;;0.00;0.00;;;;;3.35;62.65;102417.56;5062606;28;46535;-79
2021/11/23 04:26:30;;;;;;;;;1.25;0.50;;;;;3.48;63.90;102428.66;5062717;28;45287;-80
2021/11/23 04:28:56;;;;;;;;;1.00;1.00;;;;;3.61;63.96;102456.13;5062721;28;45359;-79
2021/11/23 04:31:21;;;;;;;;;0.00;0.00;;;;;3.55;63.56;102459.16;5024343;28;45368;-79
2021/11/23 04:33:46;;;;;;;;;0.00;0.00;;;;;3.28;63.86;102407.66;5064177;28;47793;-80
2021/11/23 04:36:12;;;;;;;;;0.25;0.00;;;;;3.62;63.22;102468.19;5098203;27;45379;-80
2021/11/23 04:38:37;;;;;;;;;1.00;0.00;;;;;3.35;63.61;102420.16;5082811;28;45303;-79
2021/11/23 04:41:03;;;;;;;;;1.00;1.00;;;;;3.59;64.26;102447.41;5065470;28;45331;-79
2021/11/23 04:43:28;;;;;;;;;0.50;0.50;;;;;3.58;64.10;102443.91;5062269;28;45281;-79
2021/11/23 04:45:54;;;;;;;;;2.00;0.00;;;;;3.47;64.42;102422.63;5062050;28;45225;-79
2021/11/23 04:48:19;;;;;;;;;0.00;0.00;;;;;3.57;63.72;102455.03;5062831;28;45286;-79
2021/11/23 04:50:45;;;;;;;;;0.00;0.00;;;;;3.40;63.41;102435.91;5048386;28;45433;-80
2021/11/23 04:53:10;;;;;;;;;0.00;0.00;;;;;3.37;63.95;102426.28;5042085;28;45206;-79
2021/11/23 04:55:36;;;;;;;;;0.25;0.25;;;;;3.59;63.21;102463.75;5041696;28;45198;-79
2021/11/23 04:58:01;;;;;;;;;1.00;0.00;;;;;3.11;63.39;102379.13;5041975;28;45291;-79
2021/11/23 05:00:27;;;;;;;;;0.00;0.00;;;;;3.49;63.38;102438.19;5045471;28;45589;-80
2021/11/23 05:02:52;;;;;;;;;0.00;0.00;;;;;3.54;63.24;102450.56;5053150;28;46338;-80
2021/11/23 05:05:18;;;;;;;;;0.00;0.00;;;;;3.50;63.35;102448.59;5041494;28;45331;-79
2021/11/23 05:07:44;;;;;;;;;1.00;1.00;;;;;3.55;63.42;102461.75;5043657;28;45308;-79
2021/11/23 05:10:12;;;;;;;;;0.00;0.00;;;;;3.48;63.52;102455.31;5065434;28;45396;-79
2021/11/23 05:12:38;;;;;;;;;1.50;0.25;;;;;3.40;63.24;102446.19;5057778;28;45296;-79
2021/11/23 05:15:05;;;;;;;;;0.50;0.00;;;;;3.59;62.83;102468.00;5050336;28;45439;-79
2021/11/23 05:17:30;;;;;;;;;2.00;0.00;;;;;3.55;63.75;102470.38;5062697;28;45309;-79
2021/11/23 05:19:56;;;;;;;;;2.25;1.00;;;;;3.50;63.51;102457.97;5064058;28;45389;-79
2021/11/23 05:22:21;;;;;;;;;0.00;0.00;;;;;3.53;64.22;102478.78;5064755;28;46130;-80
2021/11/23 05:24:46;;;;;;;;;0.50;0.50;;;;;3.48;63.49;102464.72;5078040;28;45317;-79
2021/11/23 05:27:12;;;;;;;;;1.00;1.00;;;;;3.23;63.36;102415.09;5045220;28;45227;-79
2021/11/23 05:29:38;;;;;;;;;0.00;0.00;;;;;3.42;63.32;102444.59;5045424;28;45517;-80
2021/11/23 05:32:04;;;;;;;;;1.00;1.00;;;;;3.42;63.18;102437.78;5059999;28;46212;-80
2021/11/23 05:34:29;;;;;;;;;0.00;0.00;;;;;3.46;63.57;102444.00;5076949;28;45310;-79
2021/11/23 05:36:54;;;;;;;;;0.00;0.00;;;;;3.58;62.29;102485.13;5064661;28;45836;-80
2021/11/23 05:39:20;;;;;;;;;0.00;0.00;;;;;3.54;63.77;102462.53;5080514;28;45313;-79
2021/11/23 05:41:45;;;;;;;;;0.00;0.00;;;;;3.61;62.31;102482.75;5065581;28;45423;-79
2021/11/23 05:44:12;;;;;;;;;1.00;1.00;;;;;3.55;63.52;102480.66;5057722;28;45288;-79
2021/11/23 05:46:39;;;;;;;;;0.00;0.00;;;;;3.59;63.69;102483.44;5044212;28;45311;-80
2021/11/23 05:49:05;;;;;;;;;1.00;1.00;;;;;3.61;63.22;102490.47;5043998;28;45206;-79
2021/11/23 05:51:31;;;;;;;;;1.75;0.25;;;;;3.51;63.09;102468.38;5055454;28;47072;-81
2021/11/23 05:53:57;;;;;;;;;0.00;0.00;;;;;3.50;62.62;102476.91;5064572;28;45323;-80
2021/11/23 05:56:22;;;;;;;;;0.25;0.25;;;;;3.58;62.78;102479.97;5065046;28;45150;-80
2021/11/23 05:58:49;;;;;;;;;0.75;0.75;;;;;3.47;62.32;102465.50;5063130;28;45664;-81
2021/11/23 06:01:14;;;;;;;;;2.00;0.50;;;;;3.53;62.63;102469.38;5049092;28;45289;-82
2021/11/23 06:03:40;;;;;;;;;0.00;0.00;;;;;3.57;62.26;102480.78;5042738;28;45368;-81
2021/11/23 06:06:05;;;;;;;;;2.25;0.75;;;;;3.61;62.68;102487.03;5059674;28;45411;-81
2021/11/23 06:08:30;;;;;;;;;1.00;0.00;;;;;3.61;62.97;102492.19;5044237;28;45344;-82
2021/11/23 06:10:56;;;;;;;;;1.00;1.00;;;;;3.61;62.24;102492.19;5059598;28;46550;-81
2021/11/23 06:13:22;;;;;;;;;2.00;1.00;;;;;3.06;61.73;102402.78;5074889;28;45535;-82
2021/11/23 06:15:48;;;;;;;;;2.00;1.25;;;;;3.65;62.59;102500.19;5041965;28;45517;-82
2021/11/23 06:18:14;;;;;;;;;0.00;0.00;;;;;3.65;62.44;102504.47;5062537;28;46912;-81
2021/11/23 06:20:56;;;;;;;;;1.25;0.00;;;;;3.41;62.34;102460.84;5064191;28;45395;-82
2021/11/23 06:23:22;;;;;;;;;0.50;0.25;;;;;3.64;62.65;102497.50;5062416;28;45435;-80
2021/11/23 06:25:51;;;;;;;;;0.25;0.00;;;;;3.69;61.92;102488.41;5061099;28;45291;-82
2021/11/23 06:28:18;;;;;;;;;1.00;1.00;;;;;3.66;61.72;102483.06;5061032;28;45513;-81
2021/11/23 06:30:44;;;;;;;;;0.00;0.00;;;;;3.70;62.02;102473.84;5073789;28;47010;-81
2021/11/23 06:33:10;;;;;;;;;0.00;0.00;;;;;3.58;62.08;102463.66;5065329;28;45500;-81
2021/11/23 06:35:37;;;;;;;;;0.50;0.00;;;;;3.77;62.44;102494.94;5052902;28;45330;-81
2021/11/23 06:38:04;;;;;;;;;0.00;0.00;;;;;3.77;61.80;102491.50;5047020;28;45342;-82
2021/11/23 06:40:29;;;;;;;;;0.00;0.00;;;;;3.54;61.94;102453.16;5059373;28;47280;-83
2021/11/23 06:42:55;;;;;;;;;0.50;0.50;;;;;3.79;61.62;102498.53;5042032;28;46041;-81
2021/11/23 06:45:20;;;;;;;;;0.50;0.50;;;;;3.58;61.28;102476.53;5043982;28;45316;-80
2021/11/23 06:47:50;;;;;;;;;1.00;1.00;;;;;3.57;61.14;102482.44;5045087;28;45596;-83
2021/11/23 06:50:15;;;;;;;;;1.25;1.25;;;;;3.63;61.99;102500.88;5027096;28;47209;-84
2021/11/23 06:52:44;;;;;;;;;0.50;0.50;;;;;3.51;60.91;102491.56;5044173;28;45419;-81
2021/11/23 06:55:10;;;;;;;;;0.50;0.00;;;;;3.41;61.14;102478.88;5055869;28;45645;-85
2021/11/23 06:57:38;;;;;;;;;2.00;1.00;;;;;3.45;61.64;102498.88;5062053;28;45481;-80
2021/11/23 07:00:06;;;;;;;;;1.00;0.75;;;;;3.58;61.60;102515.16;5078186;28;46206;-83
2021/11/23 07:02:32;;;;;;;;;0.00;0.00;;;;;3.64;61.49;102528.41;5061424;28;45284;-83
2021/11/23 07:04:59;;;;;;;;;0.00;0.00;;;;;3.44;61.65;102496.19;5063055;28;45351;-84
2021/11/23 07:07:25;;;;;;;;;0.00;0.00;;;;;3.68;60.72;102518.41;5073060;27;45468;-84
2021/11/23 07:09:51;;;;;;;;;1.00;1.00;;;;;3.66;60.54;102519.13;5061915;28;45404;-81
2021/11/23 07:12:21;;;;;;;;;0.00;0.00;;;;;3.70;60.83;102527.97;5072041;28;45367;-83
2021/11/23 07:14:47;;;;;;;;;0.50;0.50;;;;;3.70;61.58;102527.97;5063572;28;45474;-81
2021/11/23 07:17:12;;;;;;;;;2.00;0.75;;;;;3.63;61.40;102504.38;5083080;27;45706;-82
2021/11/23 07:19:38;;;;;;;;;2.00;0.00;;;;;3.77;60.96;102540.44;5043228;28;45539;-81
2021/11/23 07:22:04;;;;;;;;;3.50;2.00;;;;;3.79;61.03;102533.69;5055395;28;45386;-81
2021/11/23 07:24:30;;;;;;;;;0.00;0.00;;;;;3.79;61.19;102526.88;5057191;28;46027;-83
2021/11/23 07:26:55;;;;;;;;;1.00;1.00;;;;;3.90;60.59;102537.88;5063110;28;45921;-80
2021/11/23 07:29:21;;;;;;;;;0.25;0.25;;;;;3.93;60.69;102529.44;5062514;28;45438;-81
2021/11/23 07:31:46;;;;;;;;;0.00;0.00;;;;;4.10;60.26;102546.00;5061213;28;45750;-83
2021/11/23 07:34:12;;;;;;;;;0.00;0.00;;;;;4.02;60.37;102537.75;5074814;28;45470;-84
2021/11/23 07:36:38;;;;;;;;;0.00;0.00;;;;;4.15;60.88;102557.50;5061240;28;45763;-81
2021/11/23 07:39:05;;;;;;;;;1.50;0.00;;;;;4.00;60.14;102541.94;5067095;28;45830;-80
2021/11/23 07:41:30;;;;;;;;;0.00;0.00;;;;;4.12;59.70;102561.56;5059652;28;45477;-80
2021/11/23 07:43:57;;;;;;;;;0.50;0.00;;;;;4.18;60.01;102565.44;5060950;28;45556;-80
2021/11/23 07:46:23;;;;;;;;;0.00;0.00;;;;;4.16;60.05;102560.97;5042063;28;45447;-81
2021/11/23 07:48:48;;;;;;;;;0.25;0.00;;;;;3.89;59.85;102527.47;5060036;28;46042;-79
2021/11/23 07:51:14;;;;;;;;;0.00;0.00;;;;;4.10;60.41;102574.34;5060426;28;45411;-79
2021/11/23 07:53:40;;;;;;;;;0.00;0.00;;;;;4.09;59.73;102576.81;5058736;28;45457;-80
2021/11/23 07:56:06;;;;;;;;;1.00;0.00;;;;;4.08;60.04;102580.19;5060388;28;45585;-80
2021/11/23 07:58:31;;;;;;;;;0.75;0.75;;;;;3.84;59.66;102534.00;5062096;28;45415;-81
2021/11/23 08:00:57;;;;;;;;;0.00;0.00;;;;;3.93;60.04;102552.66;5062498;28;45464;-82
2021/11/23 08:03:23;;;;;;;;;0.00;0.00;;;;;3.99;59.60;102560.78;5067721;28;45374;-80
2021/11/23 08:05:49;;;;;;;;;1.00;1.00;;;;;4.15;58.77;102582.38;5076991;28;45499;-80
2021/11/23 08:08:14;;;;;;;;;0.00;0.00;;;;;4.17;59.10;102580.81;5060478;28;48366;-82
2021/11/23 08:10:41;;;;;;;;;0.00;0.00;;;;;4.36;59.36;102611.25;5079749;28;45358;-82
2021/11/23 08:13:07;;;;;;;;;1.00;1.00;;;;;4.22;58.29;102574.25;5067253;28;45380;-81
2021/11/23 08:15:35;;;;;;;;;1.00;1.00;;;;;4.33;58.75;102581.78;5063450;28;45462;-81
2021/11/23 08:18:01;;;;;;;;;2.00;2.00;;;;;4.42;58.88;102582.38;5061359;28;46782;-81
2021/11/23 08:20:27;;;;;;;;;1.00;1.00;;;;;4.49;58.79;102588.81;5059253;28;45264;-82
2021/11/23 08:22:52;;;;;;;;;1.50;0.50;;;;;4.50;58.31;102585.47;5043154;28;45559;-81
2021/11/23 08:25:18;;;;;;;;;0.25;0.25;;;;;4.46;58.26;102588.63;5063277;28;45755;-81
2021/11/23 08:27:44;;;;;;;;;0.50;0.50;;;;;4.61;57.65;102605.09;5061818;28;45435;-81
2021/11/23 08:30:10;;;;;;;;;1.00;1.00;;;;;4.55;57.59;102592.69;5059894;28;45363;-79
2021/11/23 08:32:36;;;;;;;;;0.00;0.00;;;;;4.70;57.79;102607.34;5067957;28;45430;-81
2021/11/23 08:35:03;;;;;;;;;0.25;0.25;;;;;4.77;58.03;102606.03;5066047;28;45361;-81
2021/11/23 08:37:28;;;;;;;;;0.75;0.75;;;;;4.72;57.90;102592.88;5069690;28;47279;-80
2021/11/23 08:39:55;;;;;;;;;3.00;0.00;;;;;4.77;57.48;102604.34;5060448;28;45423;-81
2021/11/23 08:42:20;;;;;;;;;0.25;0.25;;;;;5.02;57.79;102605.00;5061006;28;45274;-80
2021/11/23 08:44:47;;;;;;;;;0.00;0.00;;;;;5.07;56.67;102575.19;5062488;28;45410;-80
2021/11/23 08:47:14;;;;;;;;;2.75;1.00;;;;;5.18;56.67;102552.59;5084306;27;45521;-79
2021/11/23 08:49:40;;;;;;;;;2.00;0.75;;;;;5.48;56.85;102586.22;5080476;28;45353;-80
2021/11/23 08:52:07;;;;;;;;;0.25;0.25;;;;;5.41;56.43;102569.47;5080180;28;45425;-81
2021/11/23 08:54:32;;;;;;;;;0.00;0.00;;;;;5.61;55.74;102605.94;5081226;27;45555;-80
2021/11/23 08:57:05;;;;;;;;;0.00;0.00;;;;;5.61;56.03;102605.03;5064095;28;45334;-79
2021/11/23 08:59:39;;;;;;;;;0.00;0.00;;;;;5.57;55.45;102596.19;5069054;28;45470;-79
2021/11/23 09:02:06;;;;;;;;;1.00;0.75;;;;;5.48;55.30;102568.13;5064637;28;45288;-79
2021/11/23 09:04:33;;;;;;;;;0.00;0.00;;;;;5.74;55.05;102593.72;5080088;28;45515;-80
2021/11/23 09:07:03;;;;;;;;;1.00;0.00;;;;;5.60;54.95;102551.59;5063826;28;45430;-79
2021/11/23 09:09:30;;;;;;;;;0.00;0.00;;;;;5.68;55.36;102561.56;5085082;27;45328;-79
2021/11/23 09:11:57;;;;;;;;;0.00;0.00;;;;;5.83;55.09;102587.38;5053718;28;45346;-79
2021/11/23 09:14:24;;;;;;;;;0.75;0.75;;;;;5.89;53.95;102588.56;5079933;28;45497;-79
2021/11/23 09:16:50;;;;;;;;;0.00;0.00;;;;;6.05;54.03;102596.44;5077757;28;46874;-78
2021/11/23 09:19:15;;;;;;;;;0.00;0.00;;;;;6.15;53.61;102595.25;5064580;28;45550;-78
2021/11/23 09:21:41;;;;;;;;;0.00;0.00;;;;;6.03;53.35;102555.75;5064496;28;45513;-79
2021/11/23 09:24:06;;;;;;;;;0.00;0.00;;;;;6.36;53.69;102604.13;5078654;28;45454;-79
2021/11/23 09:26:32;;;;;;;;;0.25;0.25;;;;;6.32;52.91;102583.31;5078838;27;45532;-81
2021/11/23 09:28:58;;;;;;;;;0.00;0.00;;;;;6.40;52.78;102569.91;5080217;27;45326;-81
2021/11/23 09:31:23;;;;;;;;;0.50;0.50;;;;;6.95;52.62;102590.13;5064519;28;45516;-79
2021/11/23 09:33:50;;;;;;;;;0.00;0.00;;;;;7.26;52.43;102608.09;5070782;28;45501;-80
2021/11/23 09:36:15;;;;;;;;;0.00;0.00;;;;;6.87;51.57;102541.31;5072241;28;47435;-81
2021/11/23 09:38:42;;;;;;;;;1.00;0.00;;;;;7.18;51.73;102607.69;5071978;28;45466;-80
2021/11/23 09:41:09;;;;;;;;;0.00;0.00;;;;;7.19;51.25;102627.59;5066384;28;45370;-80
2021/11/23 09:43:36;;;;;;;;;0.00;0.00;;;;;7.11;50.47;102629.78;5065267;28;45995;-81
2021/11/23 09:46:02;;;;;;;;;1.00;0.00;;;;;7.11;50.82;102632.38;5062895;28;45439;-81
2021/11/23 09:48:29;;;;;;;;;0.00;0.00;;;;;7.19;51.25;102631.09;5061647;28;45469;-79
2021/11/23 09:50:54;;;;;;;;;0.00;0.00;;;;;6.98;50.81;102576.44;5065664;28;45450;-78
2021/11/23 09:53:21;;;;;;;;;0.00;0.00;;;;;7.06;50.66;102579.44;5061031;28;45675;-78
2021/11/23 09:55:48;;;;;;;;;0.00;0.00;;;;;7.38;50.35;102613.03;5075043;27;48284;-78
2021/11/23 09:58:14;;;;;;;;;0.00;0.00;;;;;7.37;50.27;102631.97;5061655;28;45475;-79
2021/11/23 10:00:45;;;;;;;;;0.00;0.00;;;;;7.35;50.48;102619.81;5062133;28;45772;-80
2021/11/23 10:03:13;;;;;;;;;0.00;0.00;;;;;7.15;49.60;102579.03;5055575;28;45407;-77
2021/11/23 10:05:43;;;;;;;;;0.00;0.00;;;;;7.43;50.59;102616.75;5078563;27;46242;-77
2021/11/23 10:08:10;;;;;;;;;0.00;0.00;;;;;7.16;50.15;102576.53;5078674;28;45484;-79
2021/11/23 10:10:42;;;;;;;;;0.00;0.00;;;;;7.48;50.00;102617.88;5063496;28;45406;-79
2021/11/23 10:13:08;;;;;;;;;0.00;0.00;;;;;7.55;50.07;102612.22;5063292;28;45682;-79
2021/11/23 10:15:35;;;;;;;;;0.00;0.00;;;;;7.50;49.24;102594.66;5063243;28;45486;-78
2021/11/23 10:18:17;;;;;;;;;0.00;0.00;;;;;7.62;49.38;102605.63;5078925;27;45443;-79
2021/11/23 10:20:44;;;;;;;;;1.00;1.00;;;;;7.51;48.80;102574.00;5063334;27;45363;-82
2021/11/23 10:23:20;;;;;;;;;0.00;0.00;;;;;7.72;49.25;102594.03;5063036;28;45584;-80
2021/11/23 10:26:00;;;;;;;;;0.00;0.00;;;;;7.63;48.46;102562.44;5059832;28;46313;-80
2021/11/23 10:28:28;;;;;;;;;0.00;0.00;;;;;7.91;48.21;102590.66;5069157;28;45532;-80
2021/11/23 10:30:54;;;;;;;;;1.00;1.00;;;;;7.76;47.93;102558.75;5061679;28;45438;-79
2021/11/23 10:33:20;;;;;;;;;0.00;0.00;;;;;7.99;47.99;102593.59;5060802;28;45527;-79
2021/11/23 10:35:50;;;;;;;;;0.00;0.00;;;;;7.97;47.41;102595.25;5062777;28;46404;-79
2021/11/23 10:38:16;;;;;;;;;0.00;0.00;;;;;7.94;47.18;102587.31;5061888;28;45223;-80
2021/11/23 10:40:46;;;;;;;;;2.00;0.00;;;;;7.92;46.80;102576.88;5062763;28;45793;-83
2021/11/23 10:43:15;;;;;;;;;0.00;0.00;;;;;7.84;47.76;102549.69;5063362;28;45497;-80
2021/11/23 10:45:44;;;;;;;;;0.00;0.00;;;;;7.96;47.17;102583.06;5062569;28;45505;-80
2021/11/23 10:48:11;;;;;;;;;0.00;0.00;;;;;8.01;46.66;102579.03;5061293;28;45402;-80
2021/11/23 10:50:39;;;;;;;;;0.00;0.00;;;;;8.06;46.25;102587.03;5065702;28;45427;-82
2021/11/23 10:53:14;;;;;;;;;0.00;0.00;;;;;7.81;46.50;102534.84;5058915;28;45276;-82
2021/11/23 10:55:42;;;;;;;;;0.00;0.00;;;;;8.01;46.17;102570.34;5058914;28;46086;-82
2021/11/23 10:58:09;;;;;;;;;0.00;0.00;;;;;8.15;45.81;102584.00;5085585;27;45042;-81
2021/11/23 11:00:48;;;;;;;;;0.00;0.00;;;;;7.96;46.19;102551.94;5063331;28;45433;-83
2021/11/23 11:03:16;;;;;;;;;0.00;0.00;;;;;8.01;46.91;102542.72;5082528;27;45535;-82
2021/11/23 11:05:43;;;;;;;;;0.00;0.00;;;;;8.01;46.94;102544.41;5065506;28;45477;-82
2021/11/23 11:08:09;;;;;;;;;0.50;0.50;;;;;8.17;45.88;102572.88;5079735;28;45690;-82
2021/11/23 11:10:37;;;;;;;;;0.00;0.00;;;;;8.04;46.17;102552.34;5062965;28;45453;-82
2021/11/23 11:13:06;;;;;;;;;0.00;0.00;;;;;8.14;46.95;102571.84;5061871;28;45519;-81
2021/11/23 11:15:38;;;;;;;;;0.00;0.00;;;;;8.15;46.29;102563.25;5059891;28;45533;-80
2021/11/23 11:18:09;;;;;;;;;0.00;0.00;;;;;7.89;46.42;102530.03;5076006;28;45785;-80
2021/11/23 11:20:49;;;;;;;;;0.00;0.00;;;;;8.11;46.06;102555.31;5059587;28;45818;-80
2021/11/23 11:23:44;;;;;;;;;0.00;0.00;;;;;8.13;46.70;102557.06;5060665;28;45354;-81
2021/11/23 11:26:25;;;;;;;;;0.00;0.00;;;;;8.14;46.02;102554.56;5040852;28;46006;-80
2021/11/23 11:29:01;;;;;;;;;0.00;0.00;;;;;8.17;46.40;102553.81;5060505;28;45500;-82
2021/11/23 11:31:38;;;;;;;;;1.00;0.00;;;;;8.14;46.08;102549.38;5061922;28;45339;-81